Time;durP1;ratioP1;P1;durP2;ratioP2;P2;SDS_P1;SDS_P2;PMS_P1;PMS_P2;Temp;Humidity;BMP_temperature;BMP_pressure;BME280_temperature;BME280_humidity;BME280_pressure;Samples;Min_cycle;Max_cycle;Signal;HPM_P1;HPM_P2
2022/11/03 00:01:14;;;;;;;9.20;7.93;;;8.20;99.90;;;;;;5084670;28;20194;-50
2022/11/03 00:03:41;;;;;;;11.63;7.50;;;8.10;99.90;;;;;;5092533;28;20208;-50
2022/11/03 00:06:08;;;;;;;7.80;7.00;;;8.10;99.90;;;;;;5090729;28;20210;-50
2022/11/03 00:08:38;;;;;;;8.33;7.43;;;8.00;99.90;;;;;;5089892;28;20237;-52
2022/11/03 00:11:08;;;;;;;10.87;7.50;;;8.00;99.90;;;;;;5089980;28;20202;-50
2022/11/03 00:13:36;;;;;;;8.13;7.33;;;7.90;99.90;;;;;;5086713;28;20236;-50
2022/11/03 00:16:03;;;;;;;8.00;7.13;;;7.90;99.90;;;;;;5086162;28;20296;-49
2022/11/03 00:18:32;;;;;;;7.87;6.83;;;7.80;99.90;;;;;;5089165;28;20234;-49
2022/11/03 00:21:00;;;;;;;10.63;7.60;;;7.80;99.90;;;;;;5092079;28;20206;-49
2022/11/03 00:23:29;;;;;;;8.60;7.17;;;7.80;99.90;;;;;;5091689;28;20202;-50
2022/11/03 00:26:04;;;;;;;7.03;5.67;;;7.80;99.90;;;;;;5086176;28;20238;-50
2022/11/03 00:28:32;;;;;;;7.53;5.63;;;7.80;99.90;;;;;;5091434;28;20369;-51
2022/11/03 00:31:00;;;;;;;6.87;6.20;;;7.80;99.90;;;;;;5091826;28;20277;-50
2022/11/03 00:33:32;;;;;;;7.57;6.37;;;7.70;99.90;;;;;;5088812;28;20303;-50
2022/11/03 00:36:00;;;;;;;8.27;6.37;;;7.60;99.90;;;;;;5092549;28;20574;-51
2022/11/03 00:38:28;;;;;;;7.40;6.70;;;7.70;99.90;;;;;;5092554;28;20224;-51
2022/11/03 00:40:55;;;;;;;8.13;7.33;;;7.70;99.90;;;;;;5091732;28;20214;-50
2022/11/03 00:43:23;;;;;;;6.87;5.93;;;7.70;99.90;;;;;;5092070;28;20198;-51
2022/11/03 00:45:50;;;;;;;11.27;7.20;;;7.70;99.90;;;;;;5080367;28;20213;-50
2022/11/03 00:48:29;;;;;;;9.63;6.83;;;7.70;99.90;;;;;;5075018;28;20588;-50
2022/11/03 00:51:02;;;;;;;8.63;6.27;;;7.70;99.90;;;;;;5091447;28;20225;-52
2022/11/03 00:53:30;;;;;;;11.87;6.63;;;7.60;99.90;;;;;;5091936;28;20218;-51
2022/11/03 00:55:57;;;;;;;7.87;6.67;;;7.60;99.90;;;;;;5089561;28;20203;-51
2022/11/03 00:58:24;;;;;;;7.17;6.57;;;7.50;99.90;;;;;;5086840;28;20218;-51
2022/11/03 01:00:58;;;;;;;10.33;6.87;;;7.50;99.90;;;;;;5091385;28;20213;-50
2022/11/03 01:03:25;;;;;;;7.70;6.50;;;7.40;99.90;;;;;;5074290;28;20206;-51
2022/11/03 01:08:38;;;;;;;9.33;6.50;;;7.40;99.90;;;;;;5074848;28;20244;-51
2022/11/03 01:13:50;;;;;;;9.50;7.77;;;7.50;99.90;;;;;;5082868;28;20906;-50
2022/11/03 01:16:17;;;;;;;9.13;7.27;;;7.50;99.90;;;;;;5091944;28;20226;-49
2022/11/03 01:18:44;;;;;;;7.53;6.60;;;7.50;99.90;;;;;;5088604;28;20226;-50
2022/11/03 01:21:11;;;;;;;9.20;7.87;;;7.50;99.90;;;;;;5088109;28;20209;-50
2022/11/03 01:23:40;;;;;;;7.47;6.77;;;7.60;99.90;;;;;;5091405;28;20195;-49
2022/11/03 01:26:09;;;;;;;10.37;7.00;;;7.50;99.90;;;;;;5089914;28;20199;-49
2022/11/03 01:28:36;;;;;;;8.30;6.77;;;7.40;99.90;;;;;;5089543;28;20221;-51
2022/11/03 01:31:05;;;;;;;6.67;6.03;;;7.30;99.90;;;;;;5071265;28;20214;-49
2022/11/03 01:33:32;;;;;;;10.50;6.87;;;7.30;99.90;;;;;;5074557;28;20200;-51
2022/11/03 01:35:59;;;;;;;7.23;6.30;;;7.30;99.90;;;;;;5086359;28;20302;-49
2022/11/03 01:38:26;;;;;;;8.77;6.43;;;7.40;99.90;;;;;;5088542;28;20229;-51
2022/11/03 01:40:54;;;;;;;6.90;6.10;;;7.40;99.90;;;;;;5091289;28;20209;-49
2022/11/03 01:43:23;;;;;;;9.23;6.30;;;7.30;99.90;;;;;;5089126;28;20208;-50
2022/11/03 01:45:58;;;;;;;8.63;6.07;;;7.20;99.90;;;;;;5091296;28;20207;-50
2022/11/03 01:48:25;;;;;;;6.90;6.20;;;7.20;99.90;;;;;;5090356;28;20726;-50
2022/11/03 01:50:53;;;;;;;7.43;5.97;;;7.10;99.90;;;;;;5091168;28;20206;-50
2022/11/03 01:53:21;;;;;;;7.20;5.70;;;7.10;99.90;;;;;;5083156;28;20202;-49
2022/11/03 01:55:51;;;;;;;6.50;5.97;;;7.00;99.90;;;;;;5074058;28;20194;-50
2022/11/03 01:58:22;;;;;;;6.00;5.50;;;7.00;99.90;;;;;;5090870;28;20212;-51
2022/11/03 02:00:52;;;;;;;5.67;5.17;;;7.00;99.90;;;;;;5089354;28;20207;-50
2022/11/03 02:03:20;;;;;;;6.93;5.20;;;6.90;99.90;;;;;;5090687;28;20267;-50
2022/11/03 02:05:49;;;;;;;8.53;6.73;;;6.90;99.90;;;;;;5090912;28;20194;-49
2022/11/03 02:08:21;;;;;;;6.70;5.73;;;6.80;99.90;;;;;;5090619;28;20865;-52
2022/11/03 02:10:49;;;;;;;6.90;5.97;;;6.80;99.90;;;;;;5085634;28;20195;-50
2022/11/03 02:13:21;;;;;;;6.73;6.13;;;6.80;99.90;;;;;;5082318;28;20210;-52
2022/11/03 02:15:49;;;;;;;9.00;5.53;;;6.80;99.90;;;;;;5089592;28;20623;-51
2022/11/03 02:18:18;;;;;;;10.20;5.47;;;6.70;99.90;;;;;;5090821;28;20700;-51
2022/11/03 02:20:50;;;;;;;6.70;6.03;;;6.80;99.90;;;;;;5090301;28;20683;-51
2022/11/03 02:23:30;;;;;;;8.60;6.43;;;6.80;99.90;;;;;;5090616;28;20587;-51
2022/11/03 02:25:59;;;;;;;6.27;5.80;;;6.80;99.90;;;;;;5085420;28;20216;-52
2022/11/03 02:28:29;;;;;;;7.70;5.53;;;6.70;99.90;;;;;;5086212;28;20222;-49
2022/11/03 02:31:04;;;;;;;7.40;6.27;;;6.70;99.90;;;;;;5090276;28;20237;-51
2022/11/03 02:33:43;;;;;;;5.43;5.07;;;6.70;99.90;;;;;;5090314;28;20340;-51
2022/11/03 02:36:15;;;;;;;8.30;6.30;;;6.70;99.90;;;;;;5089700;28;20235;-50
2022/11/03 02:38:48;;;;;;;7.33;6.07;;;6.80;99.90;;;;;;5090394;28;20229;-49
2022/11/03 02:41:17;;;;;;;6.00;5.17;;;6.80;99.90;;;;;;5088556;28;20239;-50
2022/11/03 02:43:47;;;;;;;7.37;6.43;;;6.80;99.90;;;;;;5087468;28;20217;-50
2022/11/03 02:46:15;;;;;;;6.07;5.13;;;6.80;99.90;;;;;;5082223;28;20201;-48
2022/11/03 02:48:42;;;;;;;8.80;7.20;;;6.80;99.90;;;;;;5090120;28;20606;-50
2022/11/03 02:51:10;;;;;;;7.20;6.50;;;6.90;99.90;;;;;;5090365;28;20214;-50
2022/11/03 02:53:42;;;;;;;7.40;6.57;;;6.90;99.90;;;;;;5088739;28;20571;-51
2022/11/03 02:56:15;;;;;;;11.50;6.70;;;6.70;99.90;;;;;;5088696;28;20201;-51
2022/11/03 02:58:49;;;;;;;6.67;5.87;;;6.60;99.90;;;;;;5087656;28;20222;-51
2022/11/03 03:01:24;;;;;;;6.53;5.90;;;6.50;99.90;;;;;;5088317;28;20206;-51
2022/11/03 03:03:54;;;;;;;8.83;6.50;;;6.50;99.90;;;;;;5089954;28;20205;-49
2022/11/03 03:06:26;;;;;;;10.30;6.33;;;6.40;99.90;;;;;;5089488;28;20204;-51
2022/11/03 03:08:56;;;;;;;7.70;6.83;;;6.50;99.90;;;;;;5084522;22;20234;-51
2022/11/03 03:11:36;;;;;;;7.53;6.83;;;6.50;99.90;;;;;;5045228;28;20238;-49
2022/11/03 03:14:09;;;;;;;9.57;5.90;;;6.50;99.90;;;;;;5037294;28;20206;-49
2022/11/03 03:16:47;;;;;;;7.43;6.70;;;6.40;99.90;;;;;;5047905;28;20666;-49
2022/11/03 03:19:23;;;;;;;8.77;5.80;;;6.40;99.90;;;;;;5051185;28;20227;-51
2022/11/03 03:21:54;;;;;;;7.20;6.50;;;6.40;99.90;;;;;;5051416;28;20243;-51
2022/11/03 03:24:31;;;;;;;8.33;6.37;;;6.50;99.90;;;;;;5040525;28;20229;-51
2022/11/03 03:27:01;;;;;;;7.30;6.50;;;6.60;99.90;;;;;;5046449;28;20200;-49
2022/11/03 03:29:36;;;;;;;7.37;6.63;;;6.60;99.90;;;;;;5047612;28;20642;-54
2022/11/03 03:32:08;;;;;;;8.90;6.03;;;6.60;99.90;;;;;;5035088;28;20209;-52
2022/11/03 03:34:39;;;;;;;7.80;5.93;;;6.60;99.90;;;;;;5037938;28;20231;-52
2022/11/03 03:37:09;;;;;;;8.67;6.27;;;6.60;99.90;;;;;;5045426;28;20206;-50
2022/11/03 03:39:40;;;;;;;6.57;5.97;;;6.60;99.90;;;;;;5034549;28;20232;-50
2022/11/03 03:42:09;;;;;;;7.23;6.53;;;6.60;99.90;;;;;;5054722;28;20226;-51
2022/11/03 03:44:40;;;;;;;9.03;5.90;;;6.60;99.90;;;;;;5054341;28;20200;-51
2022/11/03 03:47:13;;;;;;;12.07;7.30;;;6.50;99.90;;;;;;5054045;28;20295;-49
2022/11/03 03:49:40;;;;;;;9.40;7.30;;;6.50;99.90;;;;;;5052203;28;20250;-49
2022/11/03 03:52:08;;;;;;;8.43;6.43;;;6.40;99.90;;;;;;5042215;28;20206;-50
2022/11/03 03:54:35;;;;;;;10.53;6.67;;;6.30;99.90;;;;;;5049872;28;20243;-51
2022/11/03 03:57:05;;;;;;;6.93;6.33;;;6.20;99.90;;;;;;5045602;28;20208;-48
2022/11/03 03:59:32;;;;;;;7.60;6.60;;;6.20;99.90;;;;;;5037966;28;20221;-51
2022/11/03 04:02:01;;;;;;;8.53;6.33;;;6.20;99.90;;;;;;5042076;28;20552;-51
2022/11/03 04:04:28;;;;;;;7.87;6.50;;;6.10;99.90;;;;;;5042427;28;20200;-51
2022/11/03 04:09:36;;;;;;;11.47;7.23;;;6.20;99.90;;;;;;5038121;28;20229;-52
2022/11/03 04:23:05;;;;;;;6.17;5.60;;;6.10;99.90;;;;;;5016098;28;20251;-51
2022/11/03 04:25:32;;;;;;;6.40;5.80;;;6.10;99.90;;;;;;5049973;28;20196;-48
2022/11/03 04:27:59;;;;;;;6.23;4.90;;;6.00;99.90;;;;;;5052449;28;20221;-49
2022/11/03 04:30:27;;;;;;;4.90;4.50;;;6.10;99.90;;;;;;5052633;28;20235;-51
2022/11/03 04:32:55;;;;;;;5.60;5.20;;;6.00;99.90;;;;;;5042457;28;20232;-48
2022/11/03 04:35:24;;;;;;;4.73;4.47;;;6.00;99.90;;;;;;5047987;28;20219;-51
2022/11/03 04:37:55;;;;;;;4.97;4.60;;;5.90;99.90;;;;;;5053048;28;20285;-49
2022/11/03 04:40:22;;;;;;;7.17;5.83;;;5.90;99.90;;;;;;5052738;28;20557;-48
2022/11/03 04:42:50;;;;;;;8.20;5.40;;;5.90;99.90;;;;;;5045024;28;20211;-48
2022/11/03 04:45:24;;;;;;;5.80;5.33;;;5.90;99.90;;;;;;5036004;28;20676;-51
2022/11/03 04:47:52;;;;;;;5.20;4.80;;;5.90;99.90;;;;;;5043723;28;20228;-52
2022/11/03 04:50:23;;;;;;;4.60;4.37;;;5.90;99.90;;;;;;5053113;28;20239;-49
2022/11/03 04:52:55;;;;;;;5.47;4.97;;;5.80;99.90;;;;;;5053091;28;20638;-49
2022/11/03 04:55:22;;;;;;;5.50;5.10;;;5.80;99.90;;;;;;5052826;28;20311;-50
2022/11/03 04:57:54;;;;;;;4.80;4.40;;;5.80;99.90;;;;;;5052709;28;20226;-48
2022/11/03 05:00:22;;;;;;;5.43;4.87;;;5.80;99.90;;;;;;5052797;28;20246;-48
2022/11/03 05:02:50;;;;;;;7.70;5.50;;;5.80;99.90;;;;;;5050004;28;20201;-48
2022/11/03 05:05:21;;;;;;;4.90;4.60;;;5.80;99.90;;;;;;5046380;28;20200;-51
2022/11/03 05:07:51;;;;;;;3.80;3.60;;;5.80;99.90;;;;;;5052545;28;20236;-47
2022/11/03 05:10:20;;;;;;;4.70;4.37;;;5.80;99.90;;;;;;5053002;28;20208;-51
2022/11/03 05:12:48;;;;;;;4.73;4.33;;;5.70;99.90;;;;;;5052829;28;20201;-50
2022/11/03 05:15:31;;;;;;;3.93;3.67;;;5.70;99.90;;;;;;5045667;28;20216;-51
2022/11/03 05:18:00;;;;;;;3.80;3.50;;;5.70;99.90;;;;;;5043182;28;20265;-50
2022/11/03 05:20:34;;;;;;;4.40;3.60;;;5.70;99.90;;;;;;5048331;28;20207;-50
2022/11/03 05:23:01;;;;;;;4.93;4.53;;;5.70;99.90;;;;;;5051894;28;20665;-49
2022/11/03 05:25:39;;;;;;;4.60;4.27;;;5.70;99.90;;;;;;5046222;28;20190;-50
2022/11/03 05:28:19;;;;;;;4.37;4.00;;;5.70;99.90;;;;;;5032427;28;20775;-51
2022/11/03 05:30:48;;;;;;;4.03;3.73;;;5.70;99.90;;;;;;5032377;28;20273;-48
2022/11/03 05:33:29;;;;;;;4.47;4.17;;;5.70;99.90;;;;;;5032163;28;20209;-51
2022/11/03 05:36:01;;;;;;;4.33;4.03;;;5.70;99.90;;;;;;5045336;28;20223;-50
2022/11/03 05:38:32;;;;;;;5.90;5.40;;;5.60;99.90;;;;;;5051975;28;20640;-49
2022/11/03 05:41:00;;;;;;;5.53;5.00;;;5.60;99.90;;;;;;5049967;28;20212;-51
2022/11/03 05:43:29;;;;;;;6.17;4.83;;;5.60;99.90;;;;;;5052095;28;20620;-49
2022/11/03 05:46:01;;;;;;;5.07;4.67;;;5.60;99.90;;;;;;5052053;28;20207;-51
2022/11/03 05:48:32;;;;;;;5.87;5.30;;;5.60;99.90;;;;;;5051426;28;20231;-51
2022/11/03 05:51:13;;;;;;;6.30;5.70;;;5.60;99.90;;;;;;5051893;28;20236;-49
2022/11/03 05:53:42;;;;;;;6.77;6.10;;;5.60;99.90;;;;;;5051945;28;20213;-50
2022/11/03 05:56:15;;;;;;;7.27;5.33;;;5.60;99.90;;;;;;5048758;28;20705;-50
2022/11/03 05:58:44;;;;;;;9.63;6.20;;;5.60;99.90;;;;;;5041875;28;20233;-50
2022/11/03 06:01:16;;;;;;;7.83;6.40;;;5.70;99.90;;;;;;5038801;28;20212;-50
2022/11/03 06:03:43;;;;;;;8.50;6.47;;;5.70;99.90;;;;;;5036224;28;20205;-50
2022/11/03 06:06:18;;;;;;;6.70;6.10;;;5.70;99.90;;;;;;5040410;28;20214;-50
2022/11/03 06:08:45;;;;;;;8.43;6.83;;;5.70;99.90;;;;;;5038605;28;20231;-50
2022/11/03 06:11:20;;;;;;;13.30;9.37;;;5.60;99.90;;;;;;5039330;28;20209;-52
2022/11/03 06:13:47;;;;;;;12.83;9.23;;;5.60;99.90;;;;;;5041429;28;20252;-53
2022/11/03 06:16:32;;;;;;;15.87;10.27;;;5.60;99.90;;;;;;5038001;28;20232;-51
2022/11/03 06:19:01;;;;;;;13.07;9.03;;;5.70;99.90;;;;;;5051442;28;20635;-51
2022/11/03 06:21:31;;;;;;;17.17;10.07;;;5.70;99.90;;;;;;5038354;28;20202;-51
2022/11/03 06:23:59;;;;;;;11.30;9.00;;;5.70;99.90;;;;;;5051376;28;20207;-50
2022/11/03 06:26:28;;;;;;;16.13;9.27;;;5.70;99.90;;;;;;5043133;28;20198;-51
2022/11/03 06:28:55;;;;;;;18.30;10.43;;;5.70;99.90;;;;;;5036896;28;20626;-50
2022/11/03 06:31:27;;;;;;;11.40;8.13;;;5.60;99.90;;;;;;5050382;28;20204;-49
2022/11/03 06:33:57;;;;;;;14.07;11.00;;;5.60;99.90;;;;;;5041559;28;20291;-50
2022/11/03 06:36:28;;;;;;;13.67;11.60;;;5.60;99.90;;;;;;5047409;28;20219;-50
2022/11/03 06:39:00;;;;;;;13.57;11.97;;;5.60;99.90;;;;;;5045075;28;20255;-51
2022/11/03 06:41:29;;;;;;;15.50;12.20;;;5.60;99.90;;;;;;5032509;28;20675;-51
2022/11/03 06:44:02;;;;;;;14.97;11.93;;;5.60;99.90;;;;;;5045414;28;20243;-50
2022/11/03 06:46:30;;;;;;;12.17;9.73;;;5.60;99.90;;;;;;5043156;28;20725;-50
2022/11/03 06:49:00;;;;;;;13.40;10.80;;;5.60;99.90;;;;;;5039240;28;20222;-49
2022/11/03 06:51:29;;;;;;;14.57;11.20;;;5.60;99.90;;;;;;5036172;28;20669;-52
2022/11/03 06:54:00;;;;;;;10.70;9.60;;;5.60;99.90;;;;;;5051130;28;20206;-50
2022/11/03 06:56:30;;;;;;;12.70;9.83;;;5.70;99.90;;;;;;5050989;28;20223;-51
2022/11/03 06:58:58;;;;;;;14.23;11.33;;;5.70;99.90;;;;;;5051172;28;20232;-52
2022/11/03 07:01:29;;;;;;;12.70;10.30;;;5.70;99.90;;;;;;5053161;28;20291;-49
2022/11/03 07:04:00;;;;;;;11.83;10.07;;;5.70;99.90;;;;;;5049267;28;20208;-49
2022/11/03 07:06:31;;;;;;;14.10;9.97;;;5.80;99.90;;;;;;5051222;28;20621;-50
2022/11/03 07:09:00;;;;;;;14.30;10.00;;;5.90;99.90;;;;;;5047581;28;20231;-49
2022/11/03 07:11:30;;;;;;;12.53;10.73;;;6.00;99.90;;;;;;5045473;28;20340;-49
2022/11/03 07:13:58;;;;;;;12.67;11.33;;;6.20;99.90;;;;;;5051765;28;20633;-50
2022/11/03 07:16:29;;;;;;;13.37;11.73;;;6.30;99.90;;;;;;5051879;28;20218;-52
2022/11/03 07:19:00;;;;;;;15.57;11.70;;;6.30;99.90;;;;;;5052309;28;20227;-51
2022/11/03 07:21:36;;;;;;;19.47;11.83;;;6.40;99.90;;;;;;5052515;28;20626;-50
2022/11/03 07:24:23;;;;;;;14.83;10.30;;;6.50;99.90;;;;;;5041153;28;20205;-50
2022/11/03 07:26:56;;;;;;;15.33;11.67;;;6.50;99.90;;;;;;5043843;28;20600;-50
2022/11/03 07:29:27;;;;;;;16.63;12.13;;;6.70;99.90;;;;;;5049711;28;20297;-50
2022/11/03 07:31:55;;;;;;;12.37;10.70;;;6.80;99.90;;;;;;5049657;28;20794;-51
2022/11/03 07:34:28;;;;;;;14.90;10.43;;;6.90;99.90;;;;;;5042788;28;20199;-50
2022/11/03 07:36:58;;;;;;;10.87;8.40;;;7.00;99.90;;;;;;5045104;28;20698;-50
2022/11/03 07:39:35;;;;;;;16.90;9.87;;;7.20;99.90;;;;;;5046446;28;20221;-50
2022/11/03 07:42:09;;;;;;;12.60;8.23;;;7.40;99.90;;;;;;5038413;28;20294;-51
2022/11/03 07:44:36;;;;;;;7.30;6.27;;;7.60;99.90;;;;;;5044916;28;20209;-50
2022/11/03 07:47:04;;;;;;;9.00;7.83;;;7.80;99.90;;;;;;5050618;28;20260;-49
2022/11/03 07:49:31;;;;;;;8.10;6.67;;;8.00;99.90;;;;;;5053313;28;20307;-50
2022/11/03 07:51:59;;;;;;;10.10;6.60;;;8.20;99.90;;;;;;5048007;28;20673;-50
2022/11/03 07:54:30;;;;;;;10.17;7.10;;;8.40;99.90;;;;;;5050753;28;20253;-50
2022/11/03 07:57:00;;;;;;;7.13;6.40;;;8.60;99.90;;;;;;5049291;28;20220;-50
2022/11/03 07:59:32;;;;;;;10.80;7.40;;;8.80;99.90;;;;;;5048853;28;20232;-51
2022/11/03 08:02:00;;;;;;;9.33;7.33;;;9.10;99.90;;;;;;5051147;28;20243;-51
2022/11/03 08:04:29;;;;;;;13.50;7.97;;;9.20;99.90;;;;;;5052391;28;20205;-51
2022/11/03 08:06:56;;;;;;;14.67;8.93;;;9.20;99.90;;;;;;5050300;28;20576;-51
2022/11/03 08:09:24;;;;;;;9.97;8.93;;;9.30;99.90;;;;;;5053681;28;20224;-50
2022/11/03 08:11:52;;;;;;;14.40;9.63;;;9.30;99.90;;;;;;5052751;28;20611;-50
2022/11/03 08:14:19;;;;;;;16.10;9.53;;;9.30;99.90;;;;;;5053220;28;20716;-50
2022/11/03 08:16:46;;;;;;;11.07;8.93;;;9.50;99.90;;;;;;5052222;28;20228;-49
2022/11/03 08:19:13;;;;;;;10.73;9.63;;;9.50;99.90;;;;;;5033800;28;20228;-50
2022/11/03 08:21:40;;;;;;;13.37;9.43;;;9.60;99.90;;;;;;5038090;28;20607;-50
2022/11/03 08:24:07;;;;;;;13.77;9.50;;;9.50;99.90;;;;;;5047373;28;20207;-50
2022/11/03 08:26:34;;;;;;;17.97;10.00;;;9.50;99.90;;;;;;5053692;28;20196;-49
2022/11/03 08:29:03;;;;;;;15.38;12.13;;;9.50;99.90;;;;;;5042906;28;20449;-49
2022/11/03 08:31:30;;;;;;;13.70;10.33;;;9.70;99.90;;;;;;5053289;28;20204;-50
2022/11/03 08:33:57;;;;;;;16.50;11.50;;;10.00;99.90;;;;;;5053001;28;20198;-50
2022/11/03 08:36:24;;;;;;;16.43;11.40;;;10.20;99.90;;;;;;5053247;28;20220;-51
2022/11/03 08:38:51;;;;;;;15.77;10.87;;;10.50;99.90;;;;;;5053232;28;20227;-49
2022/11/03 08:41:18;;;;;;;12.20;9.80;;;10.60;99.90;;;;;;5052360;28;20207;-49
2022/11/03 08:43:45;;;;;;;13.47;10.17;;;10.70;99.90;;;;;;5052784;28;20209;-50
2022/11/03 08:46:13;;;;;;;13.53;10.67;;;10.90;99.90;;;;;;5052876;28;20207;-50
2022/11/03 08:48:40;;;;;;;13.40;10.13;;;11.10;99.90;;;;;;5052859;28;20278;-49
2022/11/03 08:51:09;;;;;;;14.50;10.40;;;11.20;99.90;;;;;;5053033;28;20586;-50
2022/11/03 08:53:37;;;;;;;10.60;9.50;;;11.30;99.90;;;;;;5052345;28;20283;-49
2022/11/03 08:56:04;;;;;;;11.80;9.40;;;11.30;99.90;;;;;;5048302;28;20253;-51
2022/11/03 08:58:31;;;;;;;13.17;10.13;;;11.30;99.90;;;;;;5045718;28;20225;-49
2022/11/03 09:00:58;;;;;;;13.23;10.70;;;11.30;99.90;;;;;;5050803;28;20197;-49
2022/11/03 09:03:27;;;;;;;12.77;10.33;;;11.30;99.90;;;;;;5046594;28;20216;-49
2022/11/03 09:05:54;;;;;;;12.43;11.07;;;11.20;99.90;;;;;;5041608;28;20661;-50
2022/11/03 09:08:21;;;;;;;17.03;10.80;;;11.10;99.90;;;;;;5032500;28;20236;-50
2022/11/03 09:10:48;;;;;;;14.90;10.13;;;11.20;99.90;;;;;;5052093;28;20212;-50
2022/11/03 09:13:15;;;;;;;16.47;11.57;;;11.10;99.90;;;;;;5077816;22;20685;-52
2022/11/03 09:15:43;;;;;;;16.20;12.00;;;11.20;99.90;;;;;;5065479;28;20206;-52
2022/11/03 09:18:10;;;;;;;17.17;11.90;;;11.20;99.90;;;;;;5067408;28;20669;-51
2022/11/03 09:20:39;;;;;;;14.70;11.33;;;11.20;99.90;;;;;;5067034;28;20226;-52
2022/11/03 09:23:06;;;;;;;14.77;11.67;;;11.20;99.90;;;;;;5068002;28;20314;-51
2022/11/03 09:25:33;;;;;;;16.93;13.30;;;11.00;99.90;;;;;;5062642;28;20653;-52
2022/11/03 09:28:00;;;;;;;23.63;12.57;;;10.90;99.90;;;;;;5051794;28;20197;-51
2022/11/03 09:30:28;;;;;;;15.73;11.57;;;10.90;99.90;;;;;;5051556;28;20200;-52
2022/11/03 09:32:55;;;;;;;17.57;10.57;;;10.90;99.90;;;;;;5063989;28;20235;-50
2022/11/03 09:35:22;;;;;;;14.73;12.13;;;10.90;99.90;;;;;;5062035;28;20685;-51
2022/11/03 09:37:50;;;;;;;17.40;12.27;;;10.90;99.90;;;;;;5052532;28;20224;-50
2022/11/03 09:40:17;;;;;;;18.70;12.37;;;10.80;99.90;;;;;;5051478;28;20278;-51
2022/11/03 09:42:45;;;;;;;16.07;11.17;;;10.90;99.90;;;;;;5051367;28;20575;-51
2022/11/03 09:45:13;;;;;;;16.80;12.30;;;11.00;99.90;;;;;;5057612;28;20204;-51
2022/11/03 09:47:41;;;;;;;17.50;12.30;;;11.10;99.90;;;;;;5062307;28;20207;-51
2022/11/03 09:50:14;;;;;;;16.37;11.80;;;11.20;99.90;;;;;;5065616;28;20564;-51
2022/11/03 09:52:41;;;;;;;20.27;13.03;;;11.20;99.90;;;;;;5068321;28;20633;-50
2022/11/03 09:55:15;;;;;;;19.37;12.43;;;11.10;99.90;;;;;;5062576;28;20199;-51
2022/11/03 09:57:43;;;;;;;17.37;13.00;;;11.00;99.90;;;;;;5050591;28;20654;-51
2022/11/03 10:00:18;;;;;;;17.43;13.40;;;10.90;99.90;;;;;;5052347;28;20231;-52
2022/11/03 10:02:46;;;;;;;20.70;14.13;;;10.90;99.90;;;;;;5065862;28;20250;-51
2022/11/03 10:05:15;;;;;;;19.00;12.93;;;11.00;99.90;;;;;;5061767;28;20198;-51
2022/11/03 10:07:43;;;;;;;21.27;13.57;;;11.20;99.90;;;;;;5069371;28;20204;-51
2022/11/03 10:10:18;;;;;;;16.57;13.80;;;11.30;99.90;;;;;;5070258;28;20201;-52
2022/11/03 10:12:46;;;;;;;19.43;13.23;;;11.40;99.90;;;;;;5070779;28;20235;-52
2022/11/03 10:15:18;;;;;;;15.90;12.00;;;11.40;99.90;;;;;;5070905;28;20217;-52
2022/11/03 10:17:46;;;;;;;17.77;13.07;;;11.40;99.90;;;;;;5064450;28;20697;-51
2022/11/03 10:20:14;;;;;;;22.63;13.87;;;11.40;99.90;;;;;;5067181;28;20299;-51
2022/11/03 10:22:43;;;;;;;20.57;14.00;;;11.30;99.90;;;;;;5061322;28;20827;-52
2022/11/03 10:25:29;;;;;;;14.37;11.87;;;11.20;99.90;;;;;;5065154;28;20202;-52
2022/11/03 10:28:22;;;;;;;17.83;13.37;;;11.20;99.90;;;;;;5064066;28;20207;-52
2022/11/03 10:30:55;;;;;;;18.33;12.33;;;11.30;99.90;;;;;;5068796;28;20199;-50
2022/11/03 10:33:27;;;;;;;20.03;12.57;;;11.30;99.90;;;;;;5070432;28;20732;-50
2022/11/03 10:35:55;;;;;;;17.87;12.80;;;11.30;99.90;;;;;;5070679;28;20203;-51
2022/11/03 10:38:27;;;;;;;16.70;13.13;;;11.40;99.90;;;;;;5074958;28;20248;-50
2022/11/03 10:40:56;;;;;;;17.10;12.93;;;11.50;99.90;;;;;;5074000;28;20261;-51
2022/11/03 10:43:23;;;;;;;17.80;13.17;;;11.60;99.90;;;;;;5074300;28;20217;-51
2022/11/03 10:46:09;;;;;;;15.23;13.57;;;11.50;99.90;;;;;;5074531;28;20208;-51
2022/11/03 10:48:36;;;;;;;20.57;13.13;;;11.60;99.90;;;;;;5054773;28;20201;-51
2022/11/03 10:51:03;;;;;;;17.50;11.87;;;11.70;99.90;;;;;;5054435;28;20226;-52
2022/11/03 10:53:31;;;;;;;15.47;12.73;;;11.90;99.90;;;;;;5054357;28;20304;-51
2022/11/03 10:56:00;;;;;;;16.30;12.77;;;12.00;99.90;;;;;;5054229;28;20296;-49
2022/11/03 10:58:27;;;;;;;13.43;12.03;;;11.90;99.90;;;;;;5071512;28;20211;-51
2022/11/03 11:00:54;;;;;;;18.77;12.93;;;12.00;99.90;;;;;;5074496;28;20214;-50
2022/11/03 11:03:21;;;;;;;19.73;11.67;;;11.90;99.90;;;;;;5074016;28;20226;-50
2022/11/03 11:05:49;;;;;;;18.00;13.70;;;11.90;99.90;;;;;;5074223;28;20204;-51
2022/11/03 11:08:21;;;;;;;21.27;13.50;;;11.70;99.90;;;;;;5074382;28;20195;-51
2022/11/03 11:10:48;;;;;;;18.47;13.23;;;11.70;99.90;;;;;;5072457;28;20612;-51
2022/11/03 11:13:27;;;;;;;20.67;13.80;;;11.80;99.90;;;;;;5073086;28;20729;-50
2022/11/03 11:15:56;;;;;;;23.23;12.37;;;11.90;99.90;;;;;;5067775;28;20626;-52
2022/11/03 11:19:08;;;;;;;15.13;12.30;;;11.90;99.90;;;;;;5073150;28;20590;-51
2022/11/03 11:22:12;;;;;;;18.70;12.47;;;12.00;99.90;;;;;;5061819;28;20207;-52
2022/11/03 11:24:59;;;;;;;14.83;11.70;;;12.00;99.90;;;;;;5054990;28;20286;-51
2022/11/03 11:28:05;;;;;;;15.63;13.17;;;12.10;99.90;;;;;;5062138;28;20289;-50
2022/11/03 11:31:24;;;;;;;16.50;13.20;;;12.20;99.90;;;;;;5070905;28;20211;-53
2022/11/03 11:34:30;;;;;;;20.40;13.50;;;12.30;99.90;;;;;;5071967;28;20227;-51
2022/11/03 11:37:31;;;;;;;24.13;15.90;;;12.30;99.90;;;;;;5060650;28;20218;-53
2022/11/03 11:39:58;;;;;;;22.83;16.47;;;12.30;99.90;;;;;;5064612;28;20207;-52
2022/11/03 11:42:25;;;;;;;20.10;14.03;;;12.40;99.90;;;;;;5065935;28;20223;-51
2022/11/03 11:44:57;;;;;;;16.57;13.23;;;12.40;99.90;;;;;;5061502;28;20581;-51
2022/11/03 11:47:28;;;;;;;18.37;13.10;;;12.30;99.90;;;;;;5071003;28;20252;-50
2022/11/03 11:50:22;;;;;;;19.15;13.88;;;12.30;99.90;;;;;;5053419;28;20434;-51
2022/11/03 11:52:56;;;;;;;17.70;13.87;;;12.30;99.90;;;;;;5053757;28;20235;-51
2022/11/03 11:55:32;;;;;;;18.03;13.50;;;12.20;99.90;;;;;;5053352;28;20685;-52
2022/11/03 11:58:00;;;;;;;19.80;13.23;;;12.10;99.90;;;;;;5073328;28;20215;-53
2022/11/03 12:00:30;;;;;;;21.43;13.73;;;12.10;99.90;;;;;;5071811;28;20682;-51
2022/11/03 12:03:01;;;;;;;15.50;13.50;;;12.00;99.90;;;;;;5073293;28;20234;-51
2022/11/03 12:05:31;;;;;;;19.70;14.17;;;11.90;99.90;;;;;;5072761;28;20674;-51
2022/11/03 12:07:58;;;;;;;15.87;12.93;;;11.90;99.90;;;;;;5073462;28;20204;-51
2022/11/03 12:10:26;;;;;;;18.70;13.20;;;11.90;99.90;;;;;;5073261;28;20712;-52
2022/11/03 12:12:54;;;;;;;18.13;13.43;;;11.80;99.90;;;;;;5071428;28;20225;-52
2022/11/03 12:15:50;;;;;;;18.83;14.30;;;11.90;99.90;;;;;;5073064;28;20704;-53
2022/11/03 12:18:32;;;;;;;17.23;12.47;;;11.80;99.90;;;;;;5064696;28;20255;-52
2022/11/03 12:21:00;;;;;;;18.37;13.17;;;11.80;99.90;;;;;;5073141;28;20250;-52
2022/11/03 12:23:41;;;;;;;17.67;12.90;;;11.90;99.90;;;;;;5071391;28;20230;-52
2022/11/03 12:26:16;;;;;;;18.73;14.23;;;11.90;99.90;;;;;;5055965;28;21054;-52
2022/11/03 12:28:43;;;;;;;15.90;13.07;;;11.90;99.90;;;;;;5061482;28;20229;-51
2022/11/03 12:31:11;;;;;;;17.43;13.27;;;12.00;99.90;;;;;;5066348;28;20207;-51
2022/11/03 12:33:39;;;;;;;19.03;12.03;;;12.00;99.90;;;;;;5052363;28;20228;-51
2022/11/03 12:36:07;;;;;;;23.73;14.40;;;12.20;99.90;;;;;;5071065;28;20205;-51
2022/11/03 12:38:35;;;;;;;16.93;13.20;;;12.20;99.90;;;;;;5071812;28;20231;-51
2022/11/03 12:41:20;;;;;;;16.30;12.83;;;12.10;99.90;;;;;;5068116;28;20212;-53
2022/11/03 12:43:47;;;;;;;22.53;13.93;;;12.20;99.90;;;;;;5065526;28;20219;-52
2022/11/03 12:46:14;;;;;;;16.50;13.10;;;12.20;99.90;;;;;;5065065;28;20250;-52
2022/11/03 12:48:43;;;;;;;14.77;12.53;;;12.30;99.90;;;;;;5065066;28;20665;-51
2022/11/03 12:51:12;;;;;;;20.70;14.43;;;12.30;99.90;;;;;;5065760;28;20204;-52
2022/11/03 12:53:39;;;;;;;17.53;13.03;;;12.30;99.90;;;;;;5052066;28;20260;-51
2022/11/03 12:56:07;;;;;;;14.73;11.83;;;12.40;99.90;;;;;;5071430;28;20223;-51
2022/11/03 12:58:35;;;;;;;21.60;14.57;;;12.40;99.90;;;;;;5071600;28;20320;-52
2022/11/03 13:01:02;;;;;;;22.63;16.07;;;12.40;99.90;;;;;;5071594;28;20747;-53
2022/11/03 13:03:31;;;;;;;26.07;20.77;;;12.40;99.90;;;;;;5071878;28;20220;-52
2022/11/03 13:05:59;;;;;;;20.30;14.87;;;12.40;99.90;;;;;;5072220;28;20207;-50
2022/11/03 13:08:27;;;;;;;15.63;12.97;;;12.40;99.90;;;;;;5072032;28;20768;-53
2022/11/03 13:10:54;;;;;;;18.00;13.57;;;12.30;99.90;;;;;;5071850;28;20277;-51
2022/11/03 13:13:21;;;;;;;19.67;14.07;;;12.30;99.90;;;;;;5070637;28;20308;-53
2022/11/03 13:15:48;;;;;;;18.50;13.87;;;12.40;99.90;;;;;;5072037;28;20211;-51
2022/11/03 13:18:15;;;;;;;14.83;12.87;;;12.30;99.90;;;;;;5071710;28;20229;-52
2022/11/03 13:20:43;;;;;;;20.83;14.70;;;12.30;99.90;;;;;;5071884;28;20257;-51